Time;durP1;ratioP1;P1;durP2;ratioP2;P2;SDS_P1;SDS_P2;PMS_P1;PMS_P2;Temp;Humidity;BMP_temperature;BMP_pressure;BME280_temperature;BME280_humidity;BME280_pressure;Samples;Min_cycle;Max_cycle;Signal;HPM_P1;HPM_P2
2023/12/27 00:01:29;;;;;;;6.13;2.17;;;5.10;87.80;;;;;;4879034;29;20136;-78
2023/12/27 00:03:55;;;;;;;7.30;1.80;;;5.10;87.80;;;;;;4879209;29;20041;-78
2023/12/27 00:06:20;;;;;;;6.85;1.92;;;5.10;87.80;;;;;;4878816;29;20052;-78
2023/12/27 00:08:46;;;;;;;7.63;2.20;;;5.10;87.80;;;;;;4873257;29;20051;-78
2023/12/27 00:11:15;;;;;;;5.88;2.33;;;5.10;87.90;;;;;;4874470;29;20045;-78
2023/12/27 00:13:41;;;;;;;4.78;2.15;;;5.10;87.90;;;;;;4873558;29;20041;-77
2023/12/27 00:16:07;;;;;;;7.45;2.22;;;5.00;87.90;;;;;;4872508;29;20046;-78
2023/12/27 00:18:32;;;;;;;5.65;2.00;;;5.00;87.90;;;;;;4874924;29;20504;-77
2023/12/27 00:20:58;;;;;;;6.68;1.92;;;5.00;88.00;;;;;;4872548;29;20041;-77
2023/12/27 00:23:23;;;;;;;5.93;1.85;;;5.10;88.10;;;;;;4859904;29;20041;-77
2023/12/27 00:25:49;;;;;;;4.65;2.03;;;5.10;88.20;;;;;;4871608;29;20041;-78
2023/12/27 00:28:15;;;;;;;6.32;2.28;;;5.00;88.20;;;;;;4873480;29;20037;-78
2023/12/27 00:30:40;;;;;;;7.28;1.90;;;5.00;88.20;;;;;;4872015;29;20125;-78
2023/12/27 00:33:06;;;;;;;6.57;1.80;;;5.00;88.30;;;;;;4875176;29;20522;-78
2023/12/27 00:35:31;;;;;;;5.90;1.90;;;5.00;88.30;;;;;;4882023;29;20040;-78
2023/12/27 00:37:57;;;;;;;4.93;1.73;;;5.00;88.40;;;;;;4875046;29;20037;-78
2023/12/27 00:40:22;;;;;;;5.43;1.60;;;5.00;88.40;;;;;;4871629;29;20042;-77
2023/12/27 00:42:48;;;;;;;7.13;2.50;;;5.00;88.30;;;;;;4875722;29;20400;-77
2023/12/27 00:45:14;;;;;;;9.48;2.13;;;4.90;88.00;;;;;;4871518;29;20041;-77
2023/12/27 00:47:44;;;;;;;6.15;2.30;;;4.90;87.30;;;;;;4876279;29;20037;-77
2023/12/27 00:50:10;;;;;;;6.20;2.42;;;4.80;86.90;;;;;;4864018;29;20037;-77
2023/12/27 00:52:36;;;;;;;5.80;1.90;;;4.80;87.00;;;;;;4876947;29;20396;-77
2023/12/27 00:55:01;;;;;;;7.30;2.25;;;4.80;87.10;;;;;;4874663;29;20060;-77
2023/12/27 00:57:27;;;;;;;5.32;2.08;;;4.70;87.10;;;;;;4877064;29;20128;-79
2023/12/27 00:59:52;;;;;;;5.93;1.90;;;4.80;87.30;;;;;;4871468;29;20077;-78
2023/12/27 01:02:18;;;;;;;3.92;1.60;;;4.60;86.80;;;;;;4875060;29;20048;-78
2023/12/27 01:04:43;;;;;;;11.27;3.45;;;4.60;86.90;;;;;;4876767;29;20135;-78
2023/12/27 01:07:09;;;;;;;3.88;1.90;;;4.60;87.00;;;;;;4871523;29;20482;-78
2023/12/27 01:09:35;;;;;;;6.38;2.13;;;4.50;87.00;;;;;;4874179;29;20044;-78
2023/12/27 01:12:00;;;;;;;5.55;1.85;;;4.60;87.20;;;;;;4875394;29;20084;-78
2023/12/27 01:14:26;;;;;;;8.35;2.30;;;4.60;87.40;;;;;;4871786;29;20148;-78
2023/12/27 01:16:51;;;;;;;6.18;1.77;;;4.60;87.50;;;;;;4875740;29;20512;-78
2023/12/27 01:19:17;;;;;;;5.80;2.22;;;4.50;87.60;;;;;;4873323;29;20053;-78
2023/12/27 01:21:42;;;;;;;5.03;1.55;;;4.60;87.70;;;;;;4873393;29;20042;-78
2023/12/27 01:24:08;;;;;;;6.20;1.70;;;4.50;87.70;;;;;;4873206;29;20049;-78
2023/12/27 01:26:34;;;;;;;6.18;1.90;;;4.50;87.80;;;;;;4873690;29;20051;-78
2023/12/27 01:28:59;;;;;;;4.03;1.73;;;4.50;87.80;;;;;;4870390;29;20041;-79
2023/12/27 01:31:25;;;;;;;6.57;1.65;;;4.50;87.80;;;;;;4872058;29;20071;-78
2023/12/27 01:33:50;;;;;;;7.25;1.85;;;4.50;87.70;;;;;;4860763;29;20089;-78
2023/12/27 01:36:19;;;;;;;6.75;1.45;;;4.50;87.40;;;;;;4877809;29;20507;-78
2023/12/27 01:38:45;;;;;;;8.52;2.22;;;4.40;87.10;;;;;;4872719;29;20037;-78
2023/12/27 01:41:10;;;;;;;4.93;1.40;;;4.40;86.80;;;;;;4871889;29;20545;-79
2023/12/27 01:43:37;;;;;;;6.82;1.40;;;4.30;86.40;;;;;;4875238;29;20048;-79
2023/12/27 01:46:03;;;;;;;4.57;1.70;;;4.20;86.20;;;;;;4876664;29;20474;-78
2023/12/27 01:48:30;;;;;;;4.07;1.48;;;4.10;86.00;;;;;;4873506;29;20041;-78
2023/12/27 01:50:58;;;;;;;7.93;1.55;;;4.10;86.00;;;;;;4853988;29;20413;-78
2023/12/27 01:53:24;;;;;;;3.42;1.50;;;4.10;85.80;;;;;;4869942;29;20497;-78
2023/12/27 01:55:51;;;;;;;8.93;1.80;;;4.00;85.60;;;;;;4871911;29;20482;-78
2023/12/27 01:58:17;;;;;;;7.10;1.85;;;4.00;85.40;;;;;;4872434;29;20033;-77
2023/12/27 02:00:44;;;;;;;4.00;1.50;;;3.90;85.10;;;;;;4870470;29;20044;-77
2023/12/27 02:03:11;;;;;;;5.97;2.08;;;3.80;85.10;;;;;;4872528;29;20478;-77
2023/12/27 02:05:37;;;;;;;4.05;1.90;;;3.80;85.30;;;;;;4874689;29;20059;-77
2023/12/27 02:08:04;;;;;;;8.38;2.33;;;3.70;85.40;;;;;;4872887;29;20121;-78
2023/12/27 02:10:30;;;;;;;3.95;1.40;;;3.70;85.80;;;;;;4869413;29;20124;-77
2023/12/27 02:12:56;;;;;;;7.97;2.03;;;3.70;86.10;;;;;;4875911;29;20041;-77
2023/12/27 02:15:22;;;;;;;8.32;1.75;;;3.70;86.40;;;;;;4869191;29;20080;-79
2023/12/27 02:17:48;;;;;;;6.85;1.63;;;3.70;86.60;;;;;;4871437;29;20053;-78
2023/12/27 02:20:14;;;;;;;4.40;1.70;;;3.70;86.80;;;;;;4873731;29;20089;-78
2023/12/27 02:22:43;;;;;;;4.22;1.77;;;3.80;87.10;;;;;;4876745;29;20100;-78
2023/12/27 02:25:09;;;;;;;6.40;1.77;;;3.80;87.30;;;;;;4872363;29;20047;-78
2023/12/27 02:27:35;;;;;;;9.25;3.00;;;3.80;87.50;;;;;;4873829;29;20140;-78
2023/12/27 02:30:00;;;;;;;7.00;2.47;;;3.80;87.60;;;;;;4870223;29;20486;-78
2023/12/27 02:32:26;;;;;;;9.00;2.83;;;3.80;87.60;;;;;;4876670;29;20048;-78
2023/12/27 02:34:52;;;;;;;8.32;2.72;;;3.80;87.50;;;;;;4876778;29;20049;-78
2023/12/27 02:37:17;;;;;;;8.35;3.35;;;3.80;87.40;;;;;;4873312;29;20041;-78
2023/12/27 02:39:43;;;;;;;7.18;2.75;;;3.80;87.40;;;;;;4869668;29;20445;-78
2023/12/27 02:42:08;;;;;;;10.30;3.70;;;3.80;87.50;;;;;;4871591;29;20041;-78
2023/12/27 02:44:34;;;;;;;7.47;3.00;;;3.70;87.40;;;;;;4871410;29;20473;-79
2023/12/27 02:47:01;;;;;;;5.78;2.22;;;3.70;87.40;;;;;;4872281;29;20054;-77
2023/12/27 02:49:27;;;;;;;6.90;2.50;;;3.80;87.50;;;;;;4870892;29;20116;-77
2023/12/27 02:51:52;;;;;;;6.63;1.88;;;3.70;87.60;;;;;;4874323;29;20541;-77
2023/12/27 02:54:18;;;;;;;8.02;2.40;;;3.70;87.70;;;;;;4870897;29;20038;-77
2023/12/27 02:56:44;;;;;;;5.53;2.13;;;3.70;87.80;;;;;;4875412;29;20037;-77
2023/12/27 02:59:09;;;;;;;5.00;2.10;;;3.70;87.80;;;;;;4868280;29;20128;-77
2023/12/27 03:01:35;;;;;;;5.15;2.10;;;3.70;87.90;;;;;;4872834;29;20037;-77
2023/12/27 03:04:01;;;;;;;5.65;1.90;;;3.70;88.00;;;;;;4870933;29;20102;-78
2023/12/27 03:06:26;;;;;;;4.78;2.17;;;3.70;88.20;;;;;;4874080;29;20056;-78
2023/12/27 03:08:53;;;;;;;3.83;1.80;;;3.80;88.40;;;;;;4875429;29;20071;-78
2023/12/27 03:11:19;;;;;;;9.90;3.55;;;3.80;88.60;;;;;;4873166;29;20416;-77
2023/12/27 03:13:45;;;;;;;8.85;4.22;;;3.80;88.70;;;;;;4876023;29;20036;-77
2023/12/27 03:16:10;;;;;;;9.05;3.95;;;3.80;88.70;;;;;;4884668;29;20104;-77
2023/12/27 03:18:38;;;;;;;8.75;4.05;;;3.80;88.60;;;;;;4896851;29;20047;-78
2023/12/27 03:21:04;;;;;;;9.07;3.97;;;3.80;88.50;;;;;;4890844;29;20143;-78
2023/12/27 03:23:29;;;;;;;11.55;4.75;;;3.80;88.40;;;;;;4875213;29;20105;-77
2023/12/27 03:25:55;;;;;;;9.10;4.05;;;3.80;88.40;;;;;;4881176;29;20071;-77
2023/12/27 03:28:22;;;;;;;13.70;4.75;;;3.70;88.30;;;;;;4894165;29;20057;-77
2023/12/27 03:30:47;;;;;;;7.40;3.78;;;3.70;88.30;;;;;;4874011;29;20494;-77
2023/12/27 03:33:13;;;;;;;7.28;4.20;;;3.70;88.30;;;;;;4876934;29;20068;-77
2023/12/27 03:35:38;;;;;;;9.52;4.40;;;3.70;88.30;;;;;;4895169;29;20508;-78
2023/12/27 03:38:05;;;;;;;8.07;4.15;;;3.70;88.30;;;;;;4880642;29;20036;-78
2023/12/27 03:40:30;;;;;;;9.30;3.90;;;3.70;88.30;;;;;;4893266;29;20041;-78
2023/12/27 03:42:56;;;;;;;11.38;4.65;;;3.70;88.30;;;;;;4894523;29;20389;-78
2023/12/27 03:45:21;;;;;;;12.90;4.45;;;3.60;88.20;;;;;;4874099;29;20405;-78
2023/12/27 03:47:48;;;;;;;9.02;3.78;;;3.60;88.20;;;;;;4896456;29;20159;-78
2023/12/27 03:50:14;;;;;;;6.60;3.55;;;3.50;88.20;;;;;;4876433;29;20227;-78
2023/12/27 03:52:42;;;;;;;5.68;3.50;;;3.50;88.30;;;;;;4875360;29;20049;-78
2023/12/27 03:55:08;;;;;;;7.45;3.47;;;3.50;88.50;;;;;;4873618;29;20037;-78
2023/12/27 03:57:33;;;;;;;6.63;3.63;;;3.50;88.70;;;;;;4894845;29;20044;-78
2023/12/27 03:59:59;;;;;;;7.60;3.58;;;3.50;89.00;;;;;;4873955;29;20461;-78
2023/12/27 04:02:24;;;;;;;8.43;3.83;;;3.60;89.30;;;;;;4877465;29;20119;-78
2023/12/27 04:04:50;;;;;;;10.15;3.63;;;3.60;89.50;;;;;;4864445;29;20051;-78
2023/12/27 04:07:16;;;;;;;6.90;3.88;;;3.60;89.60;;;;;;4876824;29;20534;-78
2023/12/27 04:09:42;;;;;;;6.68;3.97;;;3.70;89.80;;;;;;4876933;29;20040;-78
2023/12/27 04:12:08;;;;;;;8.52;4.10;;;3.70;89.80;;;;;;4876460;29;20076;-78
2023/12/27 04:14:33;;;;;;;9.88;4.78;;;3.70;89.90;;;;;;4873808;29;20084;-78
2023/12/27 04:16:59;;;;;;;11.27;4.97;;;3.70;89.90;;;;;;4874699;29;20057;-78
2023/12/27 04:19:24;;;;;;;10.65;4.78;;;3.70;89.90;;;;;;4878525;29;20052;-77
2023/12/27 04:21:50;;;;;;;9.10;4.68;;;3.70;89.80;;;;;;4874917;29;20101;-77
2023/12/27 04:24:16;;;;;;;7.55;4.50;;;3.70;89.90;;;;;;4875191;29;20037;-77
2023/12/27 04:26:42;;;;;;;8.60;3.83;;;3.70;90.00;;;;;;4877823;29;20192;-77
2023/12/27 04:29:08;;;;;;;7.65;4.03;;;3.70;90.10;;;;;;4876636;29;20041;-76
2023/12/27 04:31:36;;;;;;;11.38;4.20;;;3.70;90.20;;;;;;4876671;29;20128;-76
2023/12/27 04:34:02;;;;;;;7.97;4.03;;;3.80;90.20;;;;;;4891716;29;20036;-76
2023/12/27 04:36:28;;;;;;;11.57;4.47;;;3.80;90.30;;;;;;4895799;29;20035;-77
2023/12/27 04:38:53;;;;;;;10.82;3.92;;;3.80;90.30;;;;;;4894534;29;20077;-77
2023/12/27 04:41:19;;;;;;;8.05;3.95;;;3.80;90.20;;;;;;4892144;29;20511;-77
2023/12/27 04:43:44;;;;;;;6.25;3.70;;;3.80;90.20;;;;;;4890407;29;20046;-77
2023/12/27 04:46:10;;;;;;;6.18;3.63;;;3.80;90.20;;;;;;4896487;29;20044;-77
2023/12/27 04:48:36;;;;;;;7.15;4.20;;;3.80;90.30;;;;;;4876894;29;20048;-77
2023/12/27 04:51:02;;;;;;;8.07;3.72;;;3.90;90.40;;;;;;4875357;29;20056;-77
2023/12/27 04:53:27;;;;;;;10.70;4.50;;;3.90;90.40;;;;;;4893590;29;20112;-77
2023/12/27 04:55:53;;;;;;;11.98;4.20;;;3.90;90.40;;;;;;4858086;29;20045;-77
2023/12/27 04:58:19;;;;;;;9.18;4.15;;;3.90;90.20;;;;;;4879322;29;20130;-77
2023/12/27 05:00:44;;;;;;;9.77;4.20;;;3.90;90.20;;;;;;4873140;29;20124;-77
2023/12/27 05:03:10;;;;;;;9.93;4.18;;;3.80;90.10;;;;;;4878250;29;20067;-77
2023/12/27 05:05:36;;;;;;;8.95;4.15;;;3.80;90.10;;;;;;4877609;29;20041;-77
2023/12/27 05:08:01;;;;;;;15.45;6.25;;;3.80;90.00;;;;;;4892519;29;20041;-79
2023/12/27 05:10:27;;;;;;;8.88;4.85;;;3.70;90.00;;;;;;4894996;29;20028;-78
2023/12/27 05:12:55;;;;;;;12.07;4.95;;;3.70;90.00;;;;;;4896453;29;20043;-78
2023/12/27 05:15:21;;;;;;;9.75;5.38;;;3.60;90.00;;;;;;4880494;29;20059;-77
2023/12/27 05:17:46;;;;;;;14.52;5.63;;;3.50;90.00;;;;;;4894278;29;20037;-77
2023/12/27 05:20:13;;;;;;;12.15;5.93;;;3.50;90.30;;;;;;4880742;29;20072;-77
2023/12/27 05:22:40;;;;;;;14.95;6.32;;;3.50;90.20;;;;;;4878384;29;20131;-77
2023/12/27 05:25:07;;;;;;;15.50;6.18;;;3.50;90.30;;;;;;4874648;29;20199;-77
2023/12/27 05:27:32;;;;;;;12.13;5.25;;;3.50;90.40;;;;;;4891975;29;20119;-77
2023/12/27 05:29:58;;;;;;;13.63;5.75;;;3.40;90.40;;;;;;4873382;29;20544;-77
2023/12/27 05:32:24;;;;;;;14.05;5.35;;;3.40;90.50;;;;;;4891902;29;20037;-78
2023/12/27 05:34:53;;;;;;;14.55;5.60;;;3.40;90.50;;;;;;4875219;29;20039;-78
2023/12/27 05:37:20;;;;;;;10.48;5.70;;;3.40;90.70;;;;;;4871923;29;20045;-78
2023/12/27 05:39:46;;;;;;;11.20;5.40;;;3.40;90.70;;;;;;4874718;29;20041;-78
2023/12/27 05:42:13;;;;;;;11.27;5.20;;;3.40;90.80;;;;;;4878654;29;20111;-78
2023/12/27 05:44:39;;;;;;;11.27;4.88;;;3.40;90.80;;;;;;4872975;29;20057;-78
2023/12/27 05:47:05;;;;;;;10.15;5.32;;;3.40;90.90;;;;;;4875088;29;20041;-77
2023/12/27 05:49:31;;;;;;;14.70;6.35;;;3.40;91.10;;;;;;4893779;29;20148;-77
2023/12/27 05:51:56;;;;;;;13.32;6.05;;;3.40;90.90;;;;;;4892924;29;20071;-77
2023/12/27 05:54:23;;;;;;;10.95;5.75;;;3.30;91.00;;;;;;4878861;29;20033;-77
2023/12/27 05:56:49;;;;;;;16.00;7.47;;;3.40;91.00;;;;;;4888984;29;20048;-77
2023/12/27 05:59:15;;;;;;;14.68;6.75;;;3.40;91.10;;;;;;4873736;29;20116;-77
2023/12/27 06:01:54;;;;;;;11.65;6.07;;;3.30;91.30;;;;;;4877622;29;20207;-77
2023/12/27 06:04:20;;;;;;;13.40;5.88;;;3.40;91.20;;;;;;4878455;29;20059;-78
2023/12/27 06:06:49;;;;;;;13.07;6.43;;;3.40;91.30;;;;;;4874327;29;20044;-78
2023/12/27 06:09:17;;;;;;;16.13;7.00;;;3.40;91.30;;;;;;4876494;29;20044;-77
2023/12/27 06:11:43;;;;;;;11.57;6.85;;;3.40;91.30;;;;;;4874456;29;20605;-77
2023/12/27 06:14:08;;;;;;;20.65;7.03;;;3.40;91.40;;;;;;4888315;29;20045;-77
2023/12/27 06:16:34;;;;;;;15.32;7.03;;;3.40;91.40;;;;;;4892507;29;20044;-77
2023/12/27 06:19:00;;;;;;;15.18;7.18;;;3.70;91.50;;;;;;4872260;29;20067;-77
2023/12/27 06:21:26;;;;;;;13.57;6.97;;;3.40;91.50;;;;;;4875380;29;20036;-77
2023/12/27 06:23:52;;;;;;;16.63;8.32;;;3.40;91.60;;;;;;4873811;29;20056;-77
2023/12/27 06:26:17;;;;;;;15.82;7.80;;;3.50;91.60;;;;;;4888793;29;20076;-77
2023/12/27 06:28:44;;;;;;;13.30;6.93;;;3.50;91.60;;;;;;4891270;29;20080;-77
2023/12/27 06:31:10;;;;;;;17.83;8.25;;;3.50;91.60;;;;;;4891520;29;20036;-78
2023/12/27 06:33:36;;;;;;;22.38;8.73;;;3.50;91.70;;;;;;4874720;29;20041;-78
2023/12/27 06:36:04;;;;;;;20.15;8.60;;;3.50;91.70;;;;;;4872074;29;20073;-77
2023/12/27 06:38:30;;;;;;;19.00;7.90;;;3.60;91.80;;;;;;4874208;29;20033;-77
2023/12/27 06:40:55;;;;;;;15.43;7.70;;;3.60;91.80;;;;;;4870327;29;20520;-77
2023/12/27 06:43:21;;;;;;;14.18;8.10;;;3.60;91.80;;;;;;4874670;29;20033;-77
2023/12/27 06:45:48;;;;;;;23.15;8.70;;;3.60;91.80;;;;;;4891222;29;20041;-77
2023/12/27 06:48:13;;;;;;;16.48;8.20;;;3.60;91.90;;;;;;4892596;29;20048;-77
2023/12/27 06:50:39;;;;;;;14.00;7.63;;;3.70;91.90;;;;;;4890041;29;20379;-77
2023/12/27 06:53:04;;;;;;;20.02;8.82;;;3.70;92.00;;;;;;4893621;29;20239;-77
2023/12/27 06:55:31;;;;;;;14.43;8.02;;;3.70;92.00;;;;;;4870291;29;20041;-77
2023/12/27 06:57:56;;;;;;;20.60;9.85;;;3.70;92.00;;;;;;4873619;29;20059;-77
2023/12/27 07:00:22;;;;;;;20.25;8.90;;;3.70;92.00;;;;;;4871557;29;20041;-78
2023/12/27 07:02:47;;;;;;;17.83;8.68;;;3.80;92.10;;;;;;4876035;29;20428;-77
2023/12/27 07:05:13;;;;;;;15.93;7.93;;;3.80;92.10;;;;;;4863111;29;20515;-77
2023/12/27 07:07:39;;;;;;;12.45;7.85;;;3.80;92.10;;;;;;4871733;29;20033;-77
2023/12/27 07:10:06;;;;;;;15.73;8.32;;;3.80;92.10;;;;;;4872832;29;20097;-77
2023/12/27 07:12:31;;;;;;;21.08;9.38;;;3.80;92.20;;;;;;4873156;29;20041;-77
2023/12/27 07:14:58;;;;;;;20.92;8.80;;;3.80;92.20;;;;;;4856382;29;20037;-77
2023/12/27 07:17:24;;;;;;;15.57;8.70;;;3.90;92.20;;;;;;4861947;29;20045;-77
2023/12/27 07:19:49;;;;;;;17.00;8.10;;;3.90;92.30;;;;;;4870441;29;20045;-77
2023/12/27 07:22:15;;;;;;;14.10;8.30;;;3.90;92.20;;;;;;4877006;29;20041;-77
2023/12/27 07:24:41;;;;;;;17.48;7.88;;;3.90;92.30;;;;;;4889360;29;20048;-77
2023/12/27 07:27:08;;;;;;;18.35;8.20;;;4.00;92.30;;;;;;4890424;29;20032;-77
2023/12/27 07:29:36;;;;;;;19.80;8.88;;;4.00;92.30;;;;;;4889549;29;20052;-77
2023/12/27 07:32:03;;;;;;;20.13;8.80;;;4.00;92.40;;;;;;4887854;29;20519;-78
2023/12/27 07:34:29;;;;;;;15.45;8.30;;;4.10;92.40;;;;;;4889791;29;20040;-77
2023/12/27 07:36:54;;;;;;;19.40;8.02;;;4.10;92.40;;;;;;4871790;29;20040;-78
2023/12/27 07:39:20;;;;;;;17.42;7.65;;;4.10;92.40;;;;;;4878171;29;20096;-78
2023/12/27 07:41:46;;;;;;;18.77;8.07;;;4.10;92.40;;;;;;4889776;29;20043;-78
2023/12/27 07:44:12;;;;;;;21.52;7.85;;;4.20;92.50;;;;;;4870531;29;20051;-77
2023/12/27 07:46:38;;;;;;;20.15;8.13;;;4.20;92.50;;;;;;4874721;29;20045;-77
2023/12/27 07:49:04;;;;;;;23.27;8.13;;;4.20;92.50;;;;;;4873218;29;20480;-79
2023/12/27 07:51:29;;;;;;;18.73;7.60;;;4.20;92.50;;;;;;4876305;29;20072;-78
2023/12/27 07:53:55;;;;;;;19.35;7.88;;;4.20;92.50;;;;;;4894263;29;20044;-78
2023/12/27 07:56:21;;;;;;;20.38;7.38;;;4.30;92.60;;;;;;4891060;29;20049;-78
2023/12/27 07:58:47;;;;;;;20.95;7.82;;;4.30;92.50;;;;;;4877408;29;20131;-78
2023/12/27 08:01:13;;;;;;;15.90;7.15;;;4.30;92.50;;;;;;4872307;29;20131;-78
2023/12/27 08:03:39;;;;;;;17.60;6.72;;;4.40;92.60;;;;;;4879198;29;20049;-78
2023/12/27 08:06:06;;;;;;;18.20;7.18;;;4.40;92.60;;;;;;4863650;29;20049;-77
2023/12/27 08:08:34;;;;;;;13.40;7.03;;;4.40;92.60;;;;;;4879031;29;20053;-77
2023/12/27 08:11:01;;;;;;;15.07;6.28;;;4.40;92.60;;;;;;4872232;29;20080;-78
2023/12/27 08:13:27;;;;;;;16.02;7.38;;;4.50;92.60;;;;;;4877829;29;20053;-79
2023/12/27 08:15:53;;;;;;;13.68;6.65;;;4.50;92.60;;;;;;4866855;29;20068;-81
2023/12/27 08:18:18;;;;;;;16.85;7.30;;;4.50;92.60;;;;;;4877448;29;20045;-77
2023/12/27 08:20:44;;;;;;;16.52;7.22;;;4.50;92.60;;;;;;4894125;29;20609;-77
2023/12/27 08:23:12;;;;;;;21.27;7.43;;;4.60;92.60;;;;;;4875400;29;20049;-79
2023/12/27 08:25:38;;;;;;;14.65;7.05;;;4.60;92.60;;;;;;4875283;29;20519;-77
2023/12/27 08:28:05;;;;;;;13.27;6.40;;;4.60;92.70;;;;;;4898725;29;20040;-78
2023/12/27 08:30:31;;;;;;;16.20;7.43;;;4.60;92.60;;;;;;4877804;29;20092;-78
2023/12/27 08:32:58;;;;;;;16.10;7.05;;;4.60;92.60;;;;;;4895142;29;20500;-78
2023/12/27 08:35:24;;;;;;;16.38;7.32;;;4.70;92.70;;;;;;4878436;29;20115;-79
2023/12/27 08:37:49;;;;;;;18.08;7.20;;;4.70;92.70;;;;;;4895015;29;20516;-78
2023/12/27 08:40:16;;;;;;;14.20;7.22;;;4.70;92.60;;;;;;4881628;29;20047;-78
2023/12/27 08:42:42;;;;;;;13.60;6.85;;;4.70;92.60;;;;;;4884664;29;20044;-79
2023/12/27 08:45:08;;;;;;;14.32;6.97;;;4.70;92.60;;;;;;4882209;29;20048;-78
2023/12/27 08:47:33;;;;;;;14.90;7.18;;;4.80;92.70;;;;;;4881012;29;20039;-78
2023/12/27 08:49:59;;;;;;;22.05;8.57;;;4.80;92.60;;;;;;4883529;29;20128;-79
2023/12/27 08:52:25;;;;;;;18.02;8.25;;;5.20;92.70;;;;;;4879337;29;20040;-79
2023/12/27 08:54:52;;;;;;;17.05;7.60;;;4.90;92.70;;;;;;4879013;29;20053;-79
2023/12/27 08:57:18;;;;;;;18.05;7.80;;;4.90;92.60;;;;;;4894199;29;20053;-79
2023/12/27 08:59:43;;;;;;;14.27;7.68;;;4.90;92.60;;;;;;4874103;29;20532;-78
2023/12/27 09:02:09;;;;;;;13.40;7.00;;;5.00;92.60;;;;;;4877661;29;20044;-78
2023/12/27 09:04:35;;;;;;;12.82;8.40;;;5.00;92.60;;;;;;4890816;29;20041;-78
2023/12/27 09:07:00;;;;;;;16.58;9.18;;;5.00;92.50;;;;;;4887784;29;20481;-78
2023/12/27 09:09:26;;;;;;;18.33;8.32;;;5.00;92.50;;;;;;4875636;29;20032;-77
2023/12/27 09:11:51;;;;;;;17.05;8.98;;;5.10;92.50;;;;;;4894547;29;20507;-77
2023/12/27 09:14:17;;;;;;;22.30;9.25;;;5.10;92.50;;;;;;4871116;29;20052;-78
2023/12/27 09:16:43;;;;;;;16.67;8.15;;;5.10;92.50;;;;;;4893917;29;20045;-78
2023/12/27 09:19:08;;;;;;;20.98;8.77;;;5.10;92.50;;;;;;4890470;29;20045;-80
2023/12/27 09:21:34;;;;;;;16.20;8.23;;;5.20;92.50;;;;;;4877860;29;20047;-77
2023/12/27 09:24:00;;;;;;;17.30;9.07;;;5.20;92.50;;;;;;4894462;29;20092;-77
2023/12/27 09:26:25;;;;;;;19.80;8.80;;;5.20;92.50;;;;;;4890251;29;20389;-77
2023/12/27 09:28:51;;;;;;;16.73;9.13;;;5.30;92.50;;;;;;4875048;29;20134;-78
2023/12/27 09:31:17;;;;;;;13.60;7.78;;;5.30;92.40;;;;;;4875521;29;20040;-77
2023/12/27 09:33:42;;;;;;;19.58;9.10;;;5.30;92.40;;;;;;4895009;29;20049;-78
2023/12/27 09:36:08;;;;;;;14.82;7.78;;;5.30;92.40;;;;;;4878467;29;20127;-78
2023/12/27 09:38:37;;;;;;;18.45;8.55;;;5.30;92.40;;;;;;4895091;29;20033;-78
2023/12/27 09:41:03;;;;;;;17.95;8.80;;;5.40;92.30;;;;;;4894211;29;20100;-78
2023/12/27 09:43:31;;;;;;;17.73;8.90;;;5.40;92.30;;;;;;4880041;29;20048;-79
2023/12/27 09:45:57;;;;;;;18.40;8.88;;;5.40;92.30;;;;;;4882923;29;20469;-79
2023/12/27 09:48:25;;;;;;;18.02;8.65;;;5.40;92.30;;;;;;4880196;29;20119;-79
2023/12/27 09:50:51;;;;;;;17.55;9.15;;;5.40;92.30;;;;;;4876772;29;20040;-79
2023/12/27 09:53:17;;;;;;;17.65;9.20;;;5.70;92.40;;;;;;4882607;29;20047;-79
2023/12/27 09:55:45;;;;;;;17.58;9.48;;;5.40;92.30;;;;;;4878342;29;20531;-79
2023/12/27 09:58:11;;;;;;;20.17;9.82;;;5.40;92.30;;;;;;4879647;29;20040;-79
2023/12/27 10:00:38;;;;;;;20.10;10.25;;;5.40;92.30;;;;;;4862864;29;20175;-80
2023/12/27 10:03:04;;;;;;;20.90;10.13;;;6.10;92.50;;;;;;4877296;29;20041;-80
2023/12/27 10:05:59;;;;;;;22.35;9.70;;;5.50;92.40;;;;;;4887741;29;20579;-79
2023/12/27 10:08:25;;;;;;;21.05;10.02;;;5.50;92.40;;;;;;4877854;29;20041;-79
2023/12/27 10:10:51;;;;;;;20.85;9.80;;;5.50;92.40;;;;;;4878033;29;20052;-80
2023/12/27 10:13:19;;;;;;;19.13;10.65;;;5.50;92.40;;;;;;4880341;29;20044;-80
2023/12/27 10:15:45;;;;;;;21.52;10.45;;;5.50;92.40;;;;;;4882821;29;20091;-81
2023/12/27 10:18:10;;;;;;;19.27;9.80;;;5.50;92.40;;;;;;4882141;29;20417;-80
2023/12/27 10:20:36;;;;;;;21.23;10.73;;;5.50;92.40;;;;;;4880677;29;20131;-80
2023/12/27 10:23:04;;;;;;;25.52;10.68;;;5.60;92.50;;;;;;4882542;29;20189;-80
2023/12/27 10:25:29;;;;;;;19.65;9.93;;;5.60;92.50;;;;;;4881664;29;20040;-80
2023/12/27 10:27:56;;;;;;;23.05;11.20;;;6.10;92.70;;;;;;4881298;29;20055;-80
2023/12/27 10:30:25;;;;;;;22.00;11.32;;;6.00;92.60;;;;;;4879020;29;20040;-80
2023/12/27 10:33:02;;;;;;;22.45;10.63;;;5.60;92.50;;;;;;4864443;29;20059;-80
2023/12/27 10:35:28;;;;;;;20.88;10.70;;;5.60;92.60;;;;;;4865991;29;20043;-80
2023/12/27 10:38:05;;;;;;;24.25;12.60;;;5.60;92.60;;;;;;4880684;29;20051;-80
2023/12/27 10:40:32;;;;;;;22.10;11.38;;;5.70;92.70;;;;;;4874661;29;20068;-81
2023/12/27 10:43:02;;;;;;;24.30;11.50;;;5.70;92.70;;;;;;4862318;29;20063;-81
2023/12/27 10:45:28;;;;;;;26.65;11.40;;;5.70;92.70;;;;;;4893969;29;20076;-81
2023/12/27 10:47:59;;;;;;;19.85;11.40;;;5.70;92.70;;;;;;4891943;29;20049;-79
2023/12/27 10:50:27;;;;;;;23.88;11.93;;;5.70;92.70;;;;;;4874477;29;20170;-79
2023/12/27 10:53:06;;;;;;;20.95;11.85;;;5.80;92.80;;;;;;4877688;29;20413;-79
2023/12/27 10:55:33;;;;;;;28.13;11.75;;;5.80;92.80;;;;;;4874013;29;20107;-79
2023/12/27 10:58:01;;;;;;;21.20;12.45;;;5.80;92.80;;;;;;4861080;29;20115;-79
2023/12/27 11:00:28;;;;;;;26.63;12.32;;;5.90;92.90;;;;;;4877801;29;20048;-79
2023/12/27 11:02:55;;;;;;;26.23;13.57;;;5.80;92.80;;;;;;4878909;29;20037;-79
2023/12/27 11:05:22;;;;;;;25.30;12.73;;;5.90;92.90;;;;;;4876359;29;20056;-79
2023/12/27 11:07:52;;;;;;;22.88;12.93;;;5.90;92.90;;;;;;4883525;29;20381;-79
2023/12/27 11:10:19;;;;;;;29.88;14.30;;;5.90;92.90;;;;;;4890033;29;20067;-79
2023/12/27 11:12:46;;;;;;;30.60;15.50;;;6.00;92.90;;;;;;4876247;29;20048;-79
2023/12/27 11:15:18;;;;;;;21.45;14.07;;;5.90;93.00;;;;;;4865710;29;20036;-79
2023/12/27 11:17:47;;;;;;;29.17;15.07;;;6.00;93.10;;;;;;4895305;29;20496;-79
2023/12/27 11:20:14;;;;;;;21.05;14.07;;;6.00;93.00;;;;;;4879918;29;20033;-81
2023/12/27 11:22:42;;;;;;;26.83;15.95;;;6.00;93.10;;;;;;4881540;29;20048;-80
2023/12/27 11:25:08;;;;;;;23.75;15.43;;;6.00;93.10;;;;;;4878533;29;20083;-79
2023/12/27 11:27:36;;;;;;;25.23;15.25;;;6.00;93.20;;;;;;4877169;29;20041;-79
2023/12/27 11:30:02;;;;;;;21.95;13.55;;;6.10;93.20;;;;;;4883236;29;20049;-79
2023/12/27 11:32:30;;;;;;;21.55;14.23;;;6.10;93.30;;;;;;4885909;29;20171;-79
2023/12/27 11:34:56;;;;;;;17.05;12.23;;;6.10;93.30;;;;;;4894374;29;20041;-80
2023/12/27 11:37:23;;;;;;;19.52;12.75;;;6.10;93.30;;;;;;4891889;29;20040;-79
2023/12/27 11:39:51;;;;;;;21.40;12.70;;;6.10;93.30;;;;;;4893589;29;20036;-79
2023/12/27 11:42:17;;;;;;;19.15;13.23;;;6.20;93.40;;;;;;4890218;29;20052;-79
2023/12/27 11:44:51;;;;;;;19.17;13.73;;;6.20;93.40;;;;;;4885418;29;20051;-79
2023/12/27 11:47:19;;;;;;;18.50;13.15;;;6.20;93.40;;;;;;4881912;29;20041;-78
2023/12/27 11:50:09;;;;;;;22.65;14.20;;;6.20;93.40;;;;;;4900100;29;20480;-78
2023/12/27 11:52:41;;;;;;;22.35;14.57;;;6.30;93.50;;;;;;4895124;29;20068;-79
2023/12/27 11:55:18;;;;;;;18.38;13.07;;;6.30;93.50;;;;;;4883333;29;20032;-79
2023/12/27 11:57:44;;;;;;;21.27;15.02;;;6.30;93.50;;;;;;4878431;29;20089;-78
2023/12/27 12:00:22;;;;;;;20.17;14.43;;;6.30;93.50;;;;;;4896015;29;20041;-79
2023/12/27 12:02:57;;;;;;;24.58;14.95;;;6.30;93.50;;;;;;4881375;29;20140;-79
2023/12/27 12:05:52;;;;;;;26.00;15.45;;;6.40;93.50;;;;;;4881397;29;20036;-79
2023/12/27 12:08:43;;;;;;;21.80;15.38;;;6.40;93.60;;;;;;4897479;29;20060;-78
2023/12/27 12:11:12;;;;;;;24.02;15.48;;;6.40;93.60;;;;;;4881000;29;20084;-79
2023/12/27 12:13:39;;;;;;;25.02;16.90;;;6.50;93.60;;;;;;4890926;29;20048;-78
2023/12/27 12:16:08;;;;;;;23.33;15.25;;;6.50;93.60;;;;;;4876826;29;20053;-79
2023/12/27 12:18:35;;;;;;;23.85;17.30;;;6.50;93.60;;;;;;4878145;29;20079;-79
2023/12/27 12:21:01;;;;;;;25.63;17.17;;;6.60;93.60;;;;;;4896775;29;20444;-78
2023/12/27 12:23:31;;;;;;;22.80;16.92;;;6.60;93.70;;;;;;4877339;29;20496;-78
2023/12/27 12:26:01;;;;;;;30.60;17.58;;;6.60;93.70;;;;;;4893253;29;20082;-78
2023/12/27 12:28:28;;;;;;;28.45;18.05;;;6.70;93.70;;;;;;4881164;29;20044;-78
2023/12/27 12:30:56;;;;;;;28.65;18.15;;;6.70;93.70;;;;;;4876569;29;20045;-78
2023/12/27 12:33:22;;;;;;;24.75;18.17;;;6.80;93.80;;;;;;4899102;29;20114;-78
2023/12/27 12:35:49;;;;;;;26.60;18.00;;;6.80;93.80;;;;;;4886818;29;20037;-78
2023/12/27 12:38:17;;;;;;;26.17;17.20;;;6.80;93.80;;;;;;4902424;29;20095;-78
2023/12/27 12:40:44;;;;;;;28.58;17.92;;;6.80;93.80;;;;;;4878363;29;20049;-78
2023/12/27 12:43:09;;;;;;;25.52;17.92;;;6.90;93.80;;;;;;4878273;29;20075;-79
2023/12/27 12:45:35;;;;;;;29.35;18.85;;;6.90;93.80;;;;;;4880241;29;20045;-79